UAL78 RJAA-KEWR
Flight info
| Callsign | UAL78 |
|---|---|
| Flight time | N/A |
| Altitude | 35000 |
| Route | GULBO Y808 NOLAX Y812 ADNAP OTR5 KALNA 42N160E 45N170E/N0500F370 48N180E 50N170W 52N160W 53N150W 54N140W/N0486F390 DCT FRIED DCT 54N130W 53N120W DCT GUDOG DCT 50N106W DCT MOT DCT GEP/N0483F410 DCT ODI DCT KG78K DCT KG72M DCT EVOTE DCT NELLS DCT KEEHO J584 SLT FQM3 |
| Aircraft | B789/H-SDE1E2E3FGHIJ2J3J4J5M1RWXY/LB1D1 |
Departure
| Time | N/A |
|---|---|
| Airport | Narita International Airport (RJAA) |
Arrival
| Time | 2026-04-21 06:56 |
|---|---|
| Airport | Newark Liberty International Airport (KEWR) |
| Time | Latitude | Longitude | Altitude | Speed | Heading |
|---|---|---|---|---|---|
| 2026-04-21 06:35 | 41.02984 | -75.64049 | 29069 ft | 513 kts | 104° |
| 2026-04-21 06:35 | 41.01759 | -75.59642 | 28295 ft | 506 kts | 104° |
| 2026-04-21 06:36 | 41.00541 | -75.55275 | 27513 ft | 501 kts | 104° |
| 2026-04-21 06:36 | 40.99339 | -75.50976 | 26760 ft | 496 kts | 104° |
| 2026-04-21 06:36 | 40.98145 | -75.46716 | 26011 ft | 490 kts | 104° |
| 2026-04-21 06:36 | 40.96980 | -75.42557 | 25269 ft | 485 kts | 104° |
| 2026-04-21 06:37 | 40.95812 | -75.38389 | 24531 ft | 480 kts | 104° |
| 2026-04-21 06:37 | 40.94656 | -75.34276 | 23786 ft | 473 kts | 104° |
| 2026-04-21 06:37 | 40.93511 | -75.30212 | 23014 ft | 470 kts | 104° |
| 2026-04-21 06:37 | 40.92374 | -75.26184 | 22297 ft | 464 kts | 104° |
| 2026-04-21 06:38 | 40.91250 | -75.22209 | 21596 ft | 458 kts | 104° |
| 2026-04-21 06:38 | 40.90138 | -75.18280 | 20869 ft | 453 kts | 105° |
| 2026-04-21 06:38 | 40.89038 | -75.14390 | 20141 ft | 448 kts | 105° |
| 2026-04-21 06:38 | 40.87963 | -75.10600 | 19434 ft | 443 kts | 105° |
| 2026-04-21 06:39 | 40.86890 | -75.06812 | 18718 ft | 437 kts | 105° |
| 2026-04-21 06:39 | 40.85835 | -75.03063 | 17993 ft | 432 kts | 106° |
| 2026-04-21 06:39 | 40.84793 | -74.99364 | 17302 ft | 426 kts | 106° |
| 2026-04-21 06:39 | 40.83760 | -74.95721 | 16593 ft | 421 kts | 107° |
| 2026-04-21 06:40 | 40.83080 | -74.93330 | 16127 ft | 418 kts | 107° |
| 2026-04-21 06:40 | 40.82074 | -74.89760 | 15446 ft | 411 kts | 107° |
| 2026-04-21 06:40 | 40.81117 | -74.86229 | 14769 ft | 405 kts | 107° |
| 2026-04-21 06:40 | 40.80181 | -74.82751 | 14082 ft | 399 kts | 107° |
| 2026-04-21 06:41 | 40.79239 | -74.79328 | 13394 ft | 394 kts | 108° |
| 2026-04-21 06:41 | 40.78300 | -74.75952 | 12680 ft | 389 kts | 108° |
| 2026-04-21 06:41 | 40.77392 | -74.72653 | 12009 ft | 383 kts | 108° |
| 2026-04-21 06:41 | 40.76349 | -74.69444 | 11237 ft | 379 kts | 117° |
| 2026-04-21 06:42 | 40.75061 | -74.66432 | 10531 ft | 373 kts | 120° |
| 2026-04-21 06:42 | 40.73848 | -74.63466 | 10097 ft | 361 kts | 120° |
| 2026-04-21 06:42 | 40.72530 | -74.60691 | 9749 ft | 352 kts | 122° |
| 2026-04-21 06:42 | 40.71212 | -74.58058 | 9274 ft | 342 kts | 123° |
| 2026-04-21 06:43 | 40.69742 | -74.55680 | 8986 ft | 329 kts | 138° |
| 2026-04-21 06:43 | 40.67849 | -74.54016 | 8647 ft | 321 kts | 151° |
| 2026-04-21 06:43 | 40.65987 | -74.52743 | 8294 ft | 284 kts | 154° |
| 2026-04-21 06:43 | 40.64260 | -74.51744 | 7892 ft | 263 kts | 165° |
| 2026-04-21 06:44 | 40.62508 | -74.51409 | 7488 ft | 244 kts | 176° |
| 2026-04-21 06:44 | 40.60866 | -74.51260 | 7103 ft | 231 kts | 178° |
| 2026-04-21 06:44 | 40.59288 | -74.51154 | 6925 ft | 227 kts | 178° |
| 2026-04-21 06:44 | 40.57714 | -74.51055 | 6636 ft | 224 kts | 180° |
| 2026-04-21 06:45 | 40.56175 | -74.50970 | 6348 ft | 218 kts | 178° |
| 2026-04-21 06:45 | 40.54672 | -74.50883 | 6006 ft | 215 kts | 178° |
| 2026-04-21 06:45 | 40.53228 | -74.50413 | 5567 ft | 213 kts | 159° |
| 2026-04-21 06:45 | 40.51856 | -74.49718 | 5204 ft | 210 kts | 159° |
| 2026-04-21 06:46 | 40.50509 | -74.49052 | 4999 ft | 208 kts | 159° |
| 2026-04-21 06:46 | 40.49130 | -74.48367 | 4684 ft | 213 kts | 159° |
| 2026-04-21 06:46 | 40.47746 | -74.47643 | 4172 ft | 212 kts | 153° |
| 2026-04-21 06:46 | 40.46588 | -74.46475 | 3736 ft | 205 kts | 134° |
| 2026-04-21 06:47 | 40.45621 | -74.45140 | 3483 ft | 203 kts | 130° |
| 2026-04-21 06:47 | 40.44741 | -74.43697 | 3254 ft | 200 kts | 123° |
| 2026-04-21 06:47 | 40.43897 | -74.42221 | 3056 ft | 203 kts | 123° |
| 2026-04-21 06:47 | 40.43044 | -74.40746 | 2864 ft | 202 kts | 123° |
| 2026-04-21 06:48 | 40.42221 | -74.39299 | 2655 ft | 193 kts | 122° |
| 2026-04-21 06:48 | 40.41648 | -74.37737 | 2406 ft | 188 kts | 108° |
| 2026-04-21 06:48 | 40.41194 | -74.36139 | 2199 ft | 186 kts | 108° |
| 2026-04-21 06:48 | 40.40772 | -74.34562 | 1991 ft | 183 kts | 103° |
| 2026-04-21 06:49 | 40.40983 | -74.32986 | 1706 ft | 174 kts | 55° |
| 2026-04-21 06:49 | 40.41961 | -74.32113 | 1725 ft | 173 kts | 24° |
| 2026-04-21 06:49 | 40.43079 | -74.31420 | 1932 ft | 189 kts | 24° |
| 2026-04-21 06:49 | 40.44266 | -74.30683 | 1940 ft | 183 kts | 24° |
| 2026-04-21 06:50 | 40.45474 | -74.30181 | 1937 ft | 182 kts | 13° |
| 2026-04-21 06:50 | 40.46667 | -74.29778 | 1945 ft | 180 kts | 13° |
| 2026-04-21 06:50 | 40.47901 | -74.29378 | 1932 ft | 181 kts | 11° |
| 2026-04-21 06:50 | 40.49145 | -74.29126 | 1919 ft | 180 kts | 12° |
| 2026-04-21 06:51 | 40.50308 | -74.28490 | 1931 ft | 181 kts | 24° |
| 2026-04-21 06:51 | 40.51432 | -74.27783 | 1929 ft | 173 kts | 24° |
| 2026-04-21 06:51 | 40.52491 | -74.27112 | 1923 ft | 167 kts | 24° |
| 2026-04-21 06:51 | 40.53515 | -74.26462 | 1922 ft | 164 kts | 24° |
| 2026-04-21 06:52 | 40.54533 | -74.25816 | 1920 ft | 157 kts | 24° |
| 2026-04-21 06:52 | 40.55489 | -74.25203 | 1915 ft | 151 kts | 24° |
| 2026-04-21 06:52 | 40.56442 | -74.24613 | 1922 ft | 150 kts | 23° |
| 2026-04-21 06:52 | 40.57376 | -74.24019 | 1924 ft | 148 kts | 24° |
| 2026-04-21 06:53 | 40.58310 | -74.23423 | 1920 ft | 149 kts | 24° |
| 2026-04-21 06:53 | 40.59232 | -74.22831 | 1902 ft | 147 kts | 24° |
| 2026-04-21 06:53 | 40.60146 | -74.22264 | 1707 ft | 140 kts | 24° |
| 2026-04-21 06:53 | 40.61004 | -74.21713 | 1521 ft | 136 kts | 24° |
| 2026-04-21 06:54 | 40.61846 | -74.21177 | 1351 ft | 136 kts | 24° |
| 2026-04-21 06:54 | 40.62698 | -74.20637 | 1178 ft | 137 kts | 24° |
| 2026-04-21 06:54 | 40.63553 | -74.20091 | 1006 ft | 136 kts | 25° |
| 2026-04-21 06:54 | 40.64406 | -74.19550 | 820 ft | 136 kts | 24° |
| 2026-04-21 06:55 | 40.65253 | -74.19015 | 649 ft | 134 kts | 24° |
| 2026-04-21 06:55 | 40.66075 | -74.18493 | 476 ft | 130 kts | 23° |
| 2026-04-21 06:55 | 40.66894 | -74.17968 | 308 ft | 131 kts | 22° |
| 2026-04-21 06:55 | 40.67696 | -74.17465 | 133 ft | 127 kts | 22° |
| 2026-04-21 06:56 | 40.68491 | -74.16963 | 35 ft | 121 kts | 22° |
| 2026-04-21 06:56 | 40.69132 | -74.16553 | 28 ft | 80 kts | 26° |
| 2026-04-21 06:56 | 40.69498 | -74.16321 | 29 ft | 33 kts | 26° |
| 2026-04-21 06:56 | 40.69680 | -74.16295 | 27 ft | 21 kts | 353° |
| 2026-04-21 06:57 | 40.69742 | -74.16364 | 27 ft | 6 kts | 261° |
| 2026-04-21 06:57 | 40.69721 | -74.16394 | 27 ft | 8 kts | 217° |
| 2026-04-21 06:57 | 40.69655 | -74.16440 | 27 ft | 13 kts | 207° |
| 2026-04-21 06:57 | 40.69567 | -74.16498 | 28 ft | 15 kts | 206° |
| 2026-04-21 06:58 | 40.69465 | -74.16559 | 28 ft | 17 kts | 205° |
| 2026-04-21 06:58 | 40.69349 | -74.16634 | 28 ft | 20 kts | 206° |
| 2026-04-21 06:58 | 40.69222 | -74.16717 | 29 ft | 21 kts | 206° |
| 2026-04-21 06:58 | 40.69078 | -74.16806 | 28 ft | 24 kts | 205° |
| 2026-04-21 06:59 | 40.68924 | -74.16902 | 27 ft | 26 kts | 205° |
| 2026-04-21 06:59 | 40.68755 | -74.17010 | 28 ft | 28 kts | 206° |
| 2026-04-21 06:59 | 40.68592 | -74.17116 | 28 ft | 24 kts | 206° |
| 2026-04-21 06:59 | 40.68456 | -74.17205 | 28 ft | 16 kts | 217° |
| 2026-04-21 07:00 | 40.68449 | -74.17257 | 29 ft | 7 kts | 290° |
| 2026-04-21 07:00 | 40.68483 | -74.17346 | 28 ft | 13 kts | 297° |
| 2026-04-21 07:00 | 40.68534 | -74.17455 | 28 ft | 15 kts | 319° |
| 2026-04-21 07:00 | 40.68620 | -74.17530 | 28 ft | 13 kts | 360° |
| 2026-04-21 07:01 | 40.68701 | -74.17488 | 28 ft | 14 kts | 25° |
| 2026-04-21 07:01 | 40.68791 | -74.17431 | 28 ft | 13 kts | 18° |
| 2026-04-21 07:01 | 40.68843 | -74.17495 | 28 ft | 8 kts | 297° |
| 2026-04-21 07:02 | 40.68879 | -74.17555 | 28 ft | 5 kts | 327° |
| 2026-04-21 07:02 | 40.68896 | -74.17555 | 28 ft | 1 kts | 17° |
| 2026-04-21 07:02 | 40.68911 | -74.17547 | 28 ft | 4 kts | 20° |
| 2026-04-21 07:02 | 40.68927 | -74.17537 | 28 ft | 2 kts | 26° |
| 2026-04-21 07:03 | 40.68937 | -74.17530 | 28 ft | 0 kts | 25° |
| 2026-04-21 07:03 | 40.68938 | -74.17529 | 28 ft | 0 kts | 25° |